sensor_id;sensor_type;location;lat;lon;timestamp;temperature;humidity
14142;DHT22;7151;52.246;4.820;2023-11-21T00:00:13;13.40;91.30
14142;DHT22;7151;52.246;4.820;2023-11-21T00:02:39;13.40;91.30
14142;DHT22;7151;52.246;4.820;2023-11-21T00:05:08;13.40;91.30
14142;DHT22;7151;52.246;4.820;2023-11-21T00:07:35;13.30;91.30
14142;DHT22;7151;52.246;4.820;2023-11-21T00:10:01;13.30;91.30
14142;DHT22;7151;52.246;4.820;2023-11-21T00:12:28;13.30;91.20
14142;DHT22;7151;52.246;4.820;2023-11-21T00:14:55;13.30;91.20
14142;DHT22;7151;52.246;4.820;2023-11-21T00:17:20;13.30;91.20
14142;DHT22;7151;52.246;4.820;2023-11-21T00:19:46;13.30;91.20
14142;DHT22;7151;52.246;4.820;2023-11-21T00:22:11;13.30;91.30
14142;DHT22;7151;52.246;4.820;2023-11-21T00:24:37;13.20;91.30
14142;DHT22;7151;52.246;4.820;2023-11-21T00:27:03;13.20;91.30
14142;DHT22;7151;52.246;4.820;2023-11-21T00:29:29;13.20;91.30
14142;DHT22;7151;52.246;4.820;2023-11-21T00:31:54;13.20;91.30
14142;DHT22;7151;52.246;4.820;2023-11-21T00:34:20;13.20;91.30
14142;DHT22;7151;52.246;4.820;2023-11-21T00:36:45;13.20;91.40
14142;DHT22;7151;52.246;4.820;2023-11-21T00:39:11;13.20;91.40
14142;DHT22;7151;52.246;4.820;2023-11-21T00:41:37;13.20;91.40
14142;DHT22;7151;52.246;4.820;2023-11-21T00:44:03;13.20;91.40
14142;DHT22;7151;52.246;4.820;2023-11-21T00:46:29;13.20;91.50
14142;DHT22;7151;52.246;4.820;2023-11-21T00:48:55;13.20;91.50
14142;DHT22;7151;52.246;4.820;2023-11-21T00:51:21;13.20;91.50
14142;DHT22;7151;52.246;4.820;2023-11-21T00:53:47;13.30;91.60
14142;DHT22;7151;52.246;4.820;2023-11-21T00:56:13;13.20;91.60
14142;DHT22;7151;52.246;4.820;2023-11-21T00:58:40;13.20;91.60
14142;DHT22;7151;52.246;4.820;2023-11-21T01:01:11;13.30;91.70
14142;DHT22;7151;52.246;4.820;2023-11-21T01:03:37;13.30;91.70
14142;DHT22;7151;52.246;4.820;2023-11-21T01:06:03;13.30;91.70
14142;DHT22;7151;52.246;4.820;2023-11-21T01:08:32;13.30;91.70
14142;DHT22;7151;52.246;4.820;2023-11-21T01:10:58;13.30;91.80
14142;DHT22;7151;52.246;4.820;2023-11-21T01:13:23;13.30;91.80
14142;DHT22;7151;52.246;4.820;2023-11-21T01:15:49;13.30;91.80
14142;DHT22;7151;52.246;4.820;2023-11-21T01:18:14;13.30;91.80
14142;DHT22;7151;52.246;4.820;2023-11-21T01:20:40;13.30;91.90
14142;DHT22;7151;52.246;4.820;2023-11-21T01:23:06;13.30;91.90
14142;DHT22;7151;52.246;4.820;2023-11-21T01:25:31;13.30;91.90
14142;DHT22;7151;52.246;4.820;2023-11-21T01:27:57;13.30;91.90
14142;DHT22;7151;52.246;4.820;2023-11-21T01:30:22;13.40;92.00
14142;DHT22;7151;52.246;4.820;2023-11-21T01:32:48;13.30;92.00
14142;DHT22;7151;52.246;4.820;2023-11-21T01:35:13;13.40;92.00
14142;DHT22;7151;52.246;4.820;2023-11-21T01:37:39;13.30;92.00
14142;DHT22;7151;52.246;4.820;2023-11-21T01:40:05;13.40;92.00
14142;DHT22;7151;52.246;4.820;2023-11-21T01:42:35;13.40;92.00
14142;DHT22;7151;52.246;4.820;2023-11-21T01:45:01;13.40;92.10
14142;DHT22;7151;52.246;4.820;2023-11-21T01:47:31;13.40;92.40
14142;DHT22;7151;52.246;4.820;2023-11-21T01:49:57;13.40;92.10
14142;DHT22;7151;52.246;4.820;2023-11-21T01:52:23;13.40;92.10
14142;DHT22;7151;52.246;4.820;2023-11-21T01:54:49;13.40;92.10
14142;DHT22;7151;52.246;4.820;2023-11-21T01:57:15;13.40;92.20
14142;DHT22;7151;52.246;4.820;2023-11-21T01:59:41;13.40;92.20
14142;DHT22;7151;52.246;4.820;2023-11-21T02:02:08;13.40;92.20
14142;DHT22;7151;52.246;4.820;2023-11-21T02:04:35;13.40;92.20
14142;DHT22;7151;52.246;4.820;2023-11-21T02:07:04;13.40;92.20
14142;DHT22;7151;52.246;4.820;2023-11-21T02:09:33;13.40;92.20
14142;DHT22;7151;52.246;4.820;2023-11-21T02:12:00;13.40;92.20
14142;DHT22;7151;52.246;4.820;2023-11-21T02:14:26;13.40;92.20
14142;DHT22;7151;52.246;4.820;2023-11-21T02:16:53;13.30;92.20
14142;DHT22;7151;52.246;4.820;2023-11-21T02:19:20;13.40;92.20
14142;DHT22;7151;52.246;4.820;2023-11-21T02:21:50;13.40;92.20
14142;DHT22;7151;52.246;4.820;2023-11-21T02:24:20;13.40;92.20
14142;DHT22;7151;52.246;4.820;2023-11-21T02:26:47;13.40;92.30
14142;DHT22;7151;52.246;4.820;2023-11-21T02:29:13;13.40;92.30
14142;DHT22;7151;52.246;4.820;2023-11-21T02:31:39;13.40;92.30
14142;DHT22;7151;52.246;4.820;2023-11-21T02:34:14;13.40;92.30
14142;DHT22;7151;52.246;4.820;2023-11-21T02:36:40;13.40;92.30
14142;DHT22;7151;52.246;4.820;2023-11-21T02:39:05;13.40;92.30
14142;DHT22;7151;52.246;4.820;2023-11-21T02:41:33;13.40;92.30
14142;DHT22;7151;52.246;4.820;2023-11-21T02:44:00;13.40;92.40
14142;DHT22;7151;52.246;4.820;2023-11-21T02:46:25;13.40;92.40
14142;DHT22;7151;52.246;4.820;2023-11-21T02:48:51;13.40;92.40
14142;DHT22;7151;52.246;4.820;2023-11-21T02:51:19;13.40;92.40
14142;DHT22;7151;52.246;4.820;2023-11-21T02:53:44;13.40;92.40
14142;DHT22;7151;52.246;4.820;2023-11-21T02:56:12;13.40;92.40
14142;DHT22;7151;52.246;4.820;2023-11-21T02:58:37;13.40;92.50
14142;DHT22;7151;52.246;4.820;2023-11-21T03:01:03;13.40;92.50
14142;DHT22;7151;52.246;4.820;2023-11-21T03:03:32;13.40;92.50
14142;DHT22;7151;52.246;4.820;2023-11-21T03:05:58;13.40;92.50
14142;DHT22;7151;52.246;4.820;2023-11-21T03:08:23;13.50;92.60
14142;DHT22;7151;52.246;4.820;2023-11-21T03:10:49;13.50;92.60
14142;DHT22;7151;52.246;4.820;2023-11-21T03:13:14;13.50;92.60
14142;DHT22;7151;52.246;4.820;2023-11-21T03:15:40;13.50;92.60
14142;DHT22;7151;52.246;4.820;2023-11-21T03:18:06;13.50;92.60
14142;DHT22;7151;52.246;4.820;2023-11-21T03:20:31;13.50;92.60
14142;DHT22;7151;52.246;4.820;2023-11-21T03:22:57;13.50;92.70
14142;DHT22;7151;52.246;4.820;2023-11-21T03:25:25;13.50;92.70
14142;DHT22;7151;52.246;4.820;2023-11-21T03:27:50;13.50;92.70
14142;DHT22;7151;52.246;4.820;2023-11-21T03:30:16;13.50;92.70
14142;DHT22;7151;52.246;4.820;2023-11-21T03:32:42;13.50;92.70
14142;DHT22;7151;52.246;4.820;2023-11-21T03:35:07;13.50;92.80
14142;DHT22;7151;52.246;4.820;2023-11-21T03:37:33;13.60;92.80
14142;DHT22;7151;52.246;4.820;2023-11-21T03:39:59;13.50;92.80
14142;DHT22;7151;52.246;4.820;2023-11-21T03:42:24;13.50;92.80
14142;DHT22;7151;52.246;4.820;2023-11-21T03:44:52;13.60;92.90
14142;DHT22;7151;52.246;4.820;2023-11-21T03:47:17;13.50;92.80
14142;DHT22;7151;52.246;4.820;2023-11-21T03:49:44;13.50;92.80
14142;DHT22;7151;52.246;4.820;2023-11-21T03:52:10;13.60;92.90
14142;DHT22;7151;52.246;4.820;2023-11-21T03:54:37;13.50;92.90
14142;DHT22;7151;52.246;4.820;2023-11-21T03:57:03;13.60;92.90
14142;DHT22;7151;52.246;4.820;2023-11-21T03:59:28;13.50;92.90
14142;DHT22;7151;52.246;4.820;2023-11-21T04:01:56;13.60;93.00
14142;DHT22;7151;52.246;4.820;2023-11-21T04:04:22;13.50;92.90
14142;DHT22;7151;52.246;4.820;2023-11-21T04:06:48;13.60;93.00
14142;DHT22;7151;52.246;4.820;2023-11-21T04:09:13;13.60;93.00
14142;DHT22;7151;52.246;4.820;2023-11-21T04:11:39;13.60;93.30
14142;DHT22;7151;52.246;4.820;2023-11-21T04:14:04;13.60;93.10
14142;DHT22;7151;52.246;4.820;2023-11-21T04:16:30;13.60;93.40
14142;DHT22;7151;52.246;4.820;2023-11-21T04:18:55;13.60;93.40
14142;DHT22;7151;52.246;4.820;2023-11-21T04:21:22;13.60;93.10
14142;DHT22;7151;52.246;4.820;2023-11-21T04:23:49;13.60;93.20
14142;DHT22;7151;52.246;4.820;2023-11-21T04:26:15;13.60;93.20
14142;DHT22;7151;52.246;4.820;2023-11-21T04:28:40;13.60;93.20
14142;DHT22;7151;52.246;4.820;2023-11-21T04:31:06;13.60;93.50
14142;DHT22;7151;52.246;4.820;2023-11-21T04:33:32;13.60;93.20
14142;DHT22;7151;52.246;4.820;2023-11-21T04:35:58;13.60;93.20
14142;DHT22;7151;52.246;4.820;2023-11-21T04:38:23;13.60;93.20
14142;DHT22;7151;52.246;4.820;2023-11-21T04:40:49;13.70;93.30
14142;DHT22;7151;52.246;4.820;2023-11-21T04:43:14;13.70;93.30
14142;DHT22;7151;52.246;4.820;2023-11-21T04:45:40;13.60;93.20
14142;DHT22;7151;52.246;4.820;2023-11-21T04:48:07;13.70;93.30
14142;DHT22;7151;52.246;4.820;2023-11-21T04:50:33;13.60;93.20
14142;DHT22;7151;52.246;4.820;2023-11-21T04:52:59;13.60;93.20
14142;DHT22;7151;52.246;4.820;2023-11-21T04:55:25;13.60;93.20
14142;DHT22;7151;52.246;4.820;2023-11-21T04:57:53;13.60;93.20
14142;DHT22;7151;52.246;4.820;2023-11-21T05:00:19;13.60;93.20
14142;DHT22;7151;52.246;4.820;2023-11-21T05:02:46;13.60;93.20
14142;DHT22;7151;52.246;4.820;2023-11-21T05:05:12;13.60;93.20
14142;DHT22;7151;52.246;4.820;2023-11-21T05:07:39;13.60;93.30
14142;DHT22;7151;52.246;4.820;2023-11-21T05:10:05;13.60;93.30
14142;DHT22;7151;52.246;4.820;2023-11-21T05:12:37;13.60;93.30
14142;DHT22;7151;52.246;4.820;2023-11-21T05:15:07;13.60;93.30
14142;DHT22;7151;52.246;4.820;2023-11-21T05:17:37;13.60;93.30
14142;DHT22;7151;52.246;4.820;2023-11-21T05:20:05;13.60;93.30
14142;DHT22;7151;52.246;4.820;2023-11-21T05:22:34;13.60;93.30
14142;DHT22;7151;52.246;4.820;2023-11-21T05:25:00;13.60;93.50
14142;DHT22;7151;52.246;4.820;2023-11-21T05:27:26;13.60;93.40
14142;DHT22;7151;52.246;4.820;2023-11-21T05:29:51;13.70;93.40
14142;DHT22;7151;52.246;4.820;2023-11-21T05:32:17;13.70;93.50
14142;DHT22;7151;52.246;4.820;2023-11-21T05:34:43;13.70;93.50
14142;DHT22;7151;52.246;4.820;2023-11-21T05:37:08;13.70;93.50
14142;DHT22;7151;52.246;4.820;2023-11-21T05:39:34;13.70;93.50
14142;DHT22;7151;52.246;4.820;2023-11-21T05:42:01;13.70;93.50
14142;DHT22;7151;52.246;4.820;2023-11-21T05:44:26;13.70;93.50
14142;DHT22;7151;52.246;4.820;2023-11-21T05:46:52;13.70;93.60
14142;DHT22;7151;52.246;4.820;2023-11-21T05:49:18;13.70;93.60
14142;DHT22;7151;52.246;4.820;2023-11-21T05:51:47;13.70;93.60
14142;DHT22;7151;52.246;4.820;2023-11-21T05:54:13;13.70;93.60
14142;DHT22;7151;52.246;4.820;2023-11-21T05:56:38;13.80;93.70
14142;DHT22;7151;52.246;4.820;2023-11-21T05:59:04;13.80;93.70
14142;DHT22;7151;52.246;4.820;2023-11-21T06:01:29;13.80;93.70
14142;DHT22;7151;52.246;4.820;2023-11-21T06:03:55;13.80;93.70
14142;DHT22;7151;52.246;4.820;2023-11-21T06:06:22;13.80;93.80
14142;DHT22;7151;52.246;4.820;2023-11-21T06:08:50;13.80;93.80
14142;DHT22;7151;52.246;4.820;2023-11-21T06:11:15;13.80;93.80
14142;DHT22;7151;52.246;4.820;2023-11-21T06:13:41;13.90;93.80
14142;DHT22;7151;52.246;4.820;2023-11-21T06:16:08;13.90;93.80
14142;DHT22;7151;52.246;4.820;2023-11-21T06:18:33;13.90;93.80
14142;DHT22;7151;52.246;4.820;2023-11-21T06:21:00;13.90;93.90
14142;DHT22;7151;52.246;4.820;2023-11-21T06:23:26;13.90;93.90
14142;DHT22;7151;52.246;4.820;2023-11-21T06:25:51;13.90;93.90
14142;DHT22;7151;52.246;4.820;2023-11-21T06:28:18;13.90;93.90
14142;DHT22;7151;52.246;4.820;2023-11-21T06:30:44;13.90;93.90
14142;DHT22;7151;52.246;4.820;2023-11-21T06:33:12;14.00;93.90
14142;DHT22;7151;52.246;4.820;2023-11-21T06:35:38;14.00;94.00
14142;DHT22;7151;52.246;4.820;2023-11-21T06:38:03;13.90;93.90
14142;DHT22;7151;52.246;4.820;2023-11-21T06:40:29;13.90;94.00
14142;DHT22;7151;52.246;4.820;2023-11-21T06:42:54;14.00;94.00
14142;DHT22;7151;52.246;4.820;2023-11-21T06:45:20;14.00;94.00
14142;DHT22;7151;52.246;4.820;2023-11-21T06:47:46;14.00;94.00
14142;DHT22;7151;52.246;4.820;2023-11-21T06:50:12;14.00;94.00
14142;DHT22;7151;52.246;4.820;2023-11-21T06:52:38;14.00;94.10
14142;DHT22;7151;52.246;4.820;2023-11-21T06:55:04;14.00;94.10
14142;DHT22;7151;52.246;4.820;2023-11-21T06:57:30;14.00;94.10
14142;DHT22;7151;52.246;4.820;2023-11-21T06:59:56;14.00;94.20
14142;DHT22;7151;52.246;4.820;2023-11-21T07:02:23;14.00;94.10
14142;DHT22;7151;52.246;4.820;2023-11-21T07:04:49;14.00;94.10
14142;DHT22;7151;52.246;4.820;2023-11-21T07:07:14;14.00;94.10
14142;DHT22;7151;52.246;4.820;2023-11-21T07:09:40;14.00;94.10
14142;DHT22;7151;52.246;4.820;2023-11-21T07:12:06;14.00;94.10
14142;DHT22;7151;52.246;4.820;2023-11-21T07:14:34;14.00;94.10
14142;DHT22;7151;52.246;4.820;2023-11-21T07:16:59;14.10;94.20
14142;DHT22;7151;52.246;4.820;2023-11-21T07:19:25;14.00;94.20
14142;DHT22;7151;52.246;4.820;2023-11-21T07:21:50;14.00;94.20
14142;DHT22;7151;52.246;4.820;2023-11-21T07:24:17;14.00;94.20
14142;DHT22;7151;52.246;4.820;2023-11-21T07:26:42;14.10;94.20
14142;DHT22;7151;52.246;4.820;2023-11-21T07:29:08;14.10;94.20
14142;DHT22;7151;52.246;4.820;2023-11-21T07:31:34;14.10;94.20
14142;DHT22;7151;52.246;4.820;2023-11-21T07:34:00;14.10;94.30
14142;DHT22;7151;52.246;4.820;2023-11-21T07:36:26;14.10;94.30
14142;DHT22;7151;52.246;4.820;2023-11-21T07:38:52;14.10;94.30
14142;DHT22;7151;52.246;4.820;2023-11-21T07:41:18;14.10;94.30
14142;DHT22;7151;52.246;4.820;2023-11-21T07:43:45;14.10;94.30
14142;DHT22;7151;52.246;4.820;2023-11-21T07:46:11;14.10;94.30
14142;DHT22;7151;52.246;4.820;2023-11-21T07:48:39;14.10;94.30
14142;DHT22;7151;52.246;4.820;2023-11-21T07:51:05;14.10;94.30
14142;DHT22;7151;52.246;4.820;2023-11-21T07:53:31;14.10;94.30
14142;DHT22;7151;52.246;4.820;2023-11-21T07:55:58;14.10;94.30
14142;DHT22;7151;52.246;4.820;2023-11-21T07:58:23;14.10;94.30
14142;DHT22;7151;52.246;4.820;2023-11-21T08:00:49;14.10;94.40
14142;DHT22;7151;52.246;4.820;2023-11-21T08:03:15;14.10;94.40
14142;DHT22;7151;52.246;4.820;2023-11-21T08:05:41;14.10;94.40
14142;DHT22;7151;52.246;4.820;2023-11-21T08:08:07;14.10;94.40
14142;DHT22;7151;52.246;4.820;2023-11-21T08:10:33;14.20;94.40
14142;DHT22;7151;52.246;4.820;2023-11-21T08:12:59;14.20;94.50
14142;DHT22;7151;52.246;4.820;2023-11-21T08:15:24;14.20;94.40
14142;DHT22;7151;52.246;4.820;2023-11-21T08:17:50;14.20;94.50
14142;DHT22;7151;52.246;4.820;2023-11-21T08:20:16;14.20;94.50
14142;DHT22;7151;52.246;4.820;2023-11-21T08:22:43;14.20;94.50
14142;DHT22;7151;52.246;4.820;2023-11-21T08:25:09;14.20;94.50
14142;DHT22;7151;52.246;4.820;2023-11-21T08:27:35;14.20;94.50
14142;DHT22;7151;52.246;4.820;2023-11-21T08:30:02;14.20;94.50
14142;DHT22;7151;52.246;4.820;2023-11-21T08:32:28;14.20;94.50
14142;DHT22;7151;52.246;4.820;2023-11-21T08:34:55;14.20;94.50
14142;DHT22;7151;52.246;4.820;2023-11-21T08:37:21;14.20;94.50
14142;DHT22;7151;52.246;4.820;2023-11-21T08:39:47;14.20;94.50
14142;DHT22;7151;52.246;4.820;2023-11-21T08:42:18;14.20;94.50
14142;DHT22;7151;52.246;4.820;2023-11-21T08:44:44;14.20;94.50
14142;DHT22;7151;52.246;4.820;2023-11-21T08:47:10;14.20;94.50
14142;DHT22;7151;52.246;4.820;2023-11-21T08:49:35;14.20;94.50
14142;DHT22;7151;52.246;4.820;2023-11-21T08:52:01;14.20;94.50
14142;DHT22;7151;52.246;4.820;2023-11-21T08:54:27;14.20;94.50
14142;DHT22;7151;52.246;4.820;2023-11-21T08:56:53;14.20;94.50
14142;DHT22;7151;52.246;4.820;2023-11-21T08:59:20;14.20;94.50
14142;DHT22;7151;52.246;4.820;2023-11-21T09:01:46;14.20;94.50
14142;DHT22;7151;52.246;4.820;2023-11-21T09:04:12;14.20;94.50
14142;DHT22;7151;52.246;4.820;2023-11-21T09:06:39;14.20;94.60
14142;DHT22;7151;52.246;4.820;2023-11-21T09:09:05;14.20;94.60
14142;DHT22;7151;52.246;4.820;2023-11-21T09:11:32;14.20;94.60
14142;DHT22;7151;52.246;4.820;2023-11-21T09:13:59;14.20;94.60
14142;DHT22;7151;52.246;4.820;2023-11-21T09:16:25;14.20;94.60
14142;DHT22;7151;52.246;4.820;2023-11-21T09:18:51;14.20;94.50
14142;DHT22;7151;52.246;4.820;2023-11-21T09:21:17;14.20;94.50
14142;DHT22;7151;52.246;4.820;2023-11-21T09:23:45;14.20;94.50
14142;DHT22;7151;52.246;4.820;2023-11-21T09:26:11;14.20;94.40
14142;DHT22;7151;52.246;4.820;2023-11-21T09:28:37;14.20;94.50
14142;DHT22;7151;52.246;4.820;2023-11-21T09:31:08;14.20;94.50
14142;DHT22;7151;52.246;4.820;2023-11-21T09:33:34;14.20;94.50
14142;DHT22;7151;52.246;4.820;2023-11-21T09:36:00;14.20;94.50
14142;DHT22;7151;52.246;4.820;2023-11-21T09:38:26;14.20;94.50
14142;DHT22;7151;52.246;4.820;2023-11-21T09:40:54;14.20;94.50
14142;DHT22;7151;52.246;4.820;2023-11-21T09:43:20;14.20;94.50
14142;DHT22;7151;52.246;4.820;2023-11-21T09:45:51;14.20;94.50
14142;DHT22;7151;52.246;4.820;2023-11-21T09:48:20;14.20;94.50
14142;DHT22;7151;52.246;4.820;2023-11-21T09:50:47;14.20;94.50
14142;DHT22;7151;52.246;4.820;2023-11-21T09:53:19;14.20;94.50
14142;DHT22;7151;52.246;4.820;2023-11-21T09:55:51;14.20;94.50
14142;DHT22;7151;52.246;4.820;2023-11-21T09:58:18;14.20;94.50
14142;DHT22;7151;52.246;4.820;2023-11-21T10:00:51;14.20;94.50
14142;DHT22;7151;52.246;4.820;2023-11-21T10:03:18;14.20;94.50
14142;DHT22;7151;52.246;4.820;2023-11-21T10:05:44;14.20;94.50
14142;DHT22;7151;52.246;4.820;2023-11-21T10:08:12;14.20;94.60
14142;DHT22;7151;52.246;4.820;2023-11-21T10:10:45;14.20;94.60
14142;DHT22;7151;52.246;4.820;2023-11-21T10:13:13;14.20;94.60
14142;DHT22;7151;52.246;4.820;2023-11-21T10:15:42;14.20;94.50
14142;DHT22;7151;52.246;4.820;2023-11-21T10:18:14;14.20;94.50
14142;DHT22;7151;52.246;4.820;2023-11-21T10:20:41;14.10;94.50
14142;DHT22;7151;52.246;4.820;2023-11-21T10:23:07;14.20;94.50
14142;DHT22;7151;52.246;4.820;2023-11-21T10:25:37;14.20;94.50
14142;DHT22;7151;52.246;4.820;2023-11-21T10:28:03;14.20;94.50
14142;DHT22;7151;52.246;4.820;2023-11-21T10:30:36;14.20;94.50
14142;DHT22;7151;52.246;4.820;2023-11-21T10:33:07;14.20;94.50
14142;DHT22;7151;52.246;4.820;2023-11-21T10:35:51;14.20;94.40
14142;DHT22;7151;52.246;4.820;2023-11-21T10:38:23;14.20;94.40
14142;DHT22;7151;52.246;4.820;2023-11-21T10:40:50;14.20;94.40
14142;DHT22;7151;52.246;4.820;2023-11-21T10:43:16;14.20;94.40
14142;DHT22;7151;52.246;4.820;2023-11-21T10:45:43;14.20;94.30
14142;DHT22;7151;52.246;4.820;2023-11-21T10:48:13;14.20;94.30
14142;DHT22;7151;52.246;4.820;2023-11-21T10:50:43;14.20;94.30
14142;DHT22;7151;52.246;4.820;2023-11-21T10:53:09;14.20;94.40
14142;DHT22;7151;52.246;4.820;2023-11-21T10:55:37;14.20;94.40
14142;DHT22;7151;52.246;4.820;2023-11-21T10:58:04;14.20;94.40
14142;DHT22;7151;52.246;4.820;2023-11-21T11:00:31;14.20;94.40
14142;DHT22;7151;52.246;4.820;2023-11-21T11:02:57;14.20;94.40
14142;DHT22;7151;52.246;4.820;2023-11-21T11:05:25;14.20;94.40
14142;DHT22;7151;52.246;4.820;2023-11-21T11:08:05;14.30;94.50
14142;DHT22;7151;52.246;4.820;2023-11-21T11:10:31;14.30;94.40
14142;DHT22;7151;52.246;4.820;2023-11-21T11:12:58;14.30;94.40
14142;DHT22;7151;52.246;4.820;2023-11-21T11:15:25;14.30;94.50
14142;DHT22;7151;52.246;4.820;2023-11-21T11:17:52;14.30;94.50
14142;DHT22;7151;52.246;4.820;2023-11-21T11:20:18;14.30;94.50
14142;DHT22;7151;52.246;4.820;2023-11-21T11:28:21;14.30;94.40
14142;DHT22;7151;52.246;4.820;2023-11-21T11:36:47;14.30;94.30
14142;DHT22;7151;52.246;4.820;2023-11-21T11:39:37;14.30;94.30
14142;DHT22;7151;52.246;4.820;2023-11-21T11:42:05;14.30;94.30
14142;DHT22;7151;52.246;4.820;2023-11-21T11:50:00;14.20;94.20
14142;DHT22;7151;52.246;4.820;2023-11-21T11:52:41;14.20;94.20
14142;DHT22;7151;52.246;4.820;2023-11-21T11:55:09;14.20;94.20
14142;DHT22;7151;52.246;4.820;2023-11-21T11:57:38;14.20;94.20
14142;DHT22;7151;52.246;4.820;2023-11-21T12:00:18;14.20;94.20
14142;DHT22;7151;52.246;4.820;2023-11-21T12:02:50;14.20;94.20
14142;DHT22;7151;52.246;4.820;2023-11-21T12:05:18;14.20;94.10
14142;DHT22;7151;52.246;4.820;2023-11-21T12:07:44;14.20;94.10
14142;DHT22;7151;52.246;4.820;2023-11-21T12:10:13;14.30;94.20
14142;DHT22;7151;52.246;4.820;2023-11-21T12:12:43;14.20;94.10
14142;DHT22;7151;52.246;4.820;2023-11-21T12:15:09;14.30;94.10
14142;DHT22;7151;52.246;4.820;2023-11-21T12:17:35;14.30;94.10
14142;DHT22;7151;52.246;4.820;2023-11-21T12:20:03;14.30;94.10
14142;DHT22;7151;52.246;4.820;2023-11-21T12:22:29;14.30;94.00
14142;DHT22;7151;52.246;4.820;2023-11-21T12:24:56;14.30;94.00
14142;DHT22;7151;52.246;4.820;2023-11-21T12:27:21;14.30;94.10
14142;DHT22;7151;52.246;4.820;2023-11-21T12:29:47;14.30;94.00
14142;DHT22;7151;52.246;4.820;2023-11-21T12:32:13;14.30;94.00
14142;DHT22;7151;52.246;4.820;2023-11-21T12:34:40;14.30;94.00
14142;DHT22;7151;52.246;4.820;2023-11-21T12:37:06;14.30;94.00
14142;DHT22;7151;52.246;4.820;2023-11-21T12:39:32;14.30;94.00
14142;DHT22;7151;52.246;4.820;2023-11-21T12:41:57;14.30;94.00
14142;DHT22;7151;52.246;4.820;2023-11-21T12:44:23;14.30;94.00
14142;DHT22;7151;52.246;4.820;2023-11-21T12:46:49;14.30;94.00
14142;DHT22;7151;52.246;4.820;2023-11-21T12:49:16;14.30;93.90
14142;DHT22;7151;52.246;4.820;2023-11-21T12:51:45;14.30;93.90
14142;DHT22;7151;52.246;4.820;2023-11-21T12:54:12;14.30;93.90
14142;DHT22;7151;52.246;4.820;2023-11-21T12:56:39;14.40;93.90
14142;DHT22;7151;52.246;4.820;2023-11-21T12:59:04;14.30;93.80
14142;DHT22;7151;52.246;4.820;2023-11-21T13:01:30;14.30;93.70
14142;DHT22;7151;52.246;4.820;2023-11-21T13:04:00;14.30;93.70
14142;DHT22;7151;52.246;4.820;2023-11-21T13:06:27;14.30;93.70
14142;DHT22;7151;52.246;4.820;2023-11-21T13:08:56;14.30;93.60
14142;DHT22;7151;52.246;4.820;2023-11-21T13:11:24;14.30;93.60
14142;DHT22;7151;52.246;4.820;2023-11-21T13:13:53;14.20;93.60
14142;DHT22;7151;52.246;4.820;2023-11-21T13:16:19;14.30;93.70
14142;DHT22;7151;52.246;4.820;2023-11-21T13:18:46;14.30;93.60
14142;DHT22;7151;52.246;4.820;2023-11-21T13:21:11;14.30;93.60
14142;DHT22;7151;52.246;4.820;2023-11-21T13:23:42;14.20;93.50
14142;DHT22;7151;52.246;4.820;2023-11-21T13:26:08;14.20;93.80
14142;DHT22;7151;52.246;4.820;2023-11-21T13:28:35;14.20;93.50
14142;DHT22;7151;52.246;4.820;2023-11-21T13:31:03;14.20;93.50
14142;DHT22;7151;52.246;4.820;2023-11-21T13:33:40;14.20;93.50
14142;DHT22;7151;52.246;4.820;2023-11-21T13:36:08;14.20;93.50
14142;DHT22;7151;52.246;4.820;2023-11-21T13:38:35;14.20;93.40
14142;DHT22;7151;52.246;4.820;2023-11-21T13:41:02;14.20;93.40
14142;DHT22;7151;52.246;4.820;2023-11-21T13:43:32;14.20;93.40
14142;DHT22;7151;52.246;4.820;2023-11-21T13:45:59;14.20;93.40
14142;DHT22;7151;52.246;4.820;2023-11-21T13:48:28;14.20;93.30
14142;DHT22;7151;52.246;4.820;2023-11-21T13:50:59;14.20;93.30
14142;DHT22;7151;52.246;4.820;2023-11-21T13:53:36;14.20;93.30
14142;DHT22;7151;52.246;4.820;2023-11-21T13:56:04;14.20;93.30
14142;DHT22;7151;52.246;4.820;2023-11-21T13:58:30;14.10;93.20
14142;DHT22;7151;52.246;4.820;2023-11-21T14:01:12;14.10;93.20
14142;DHT22;7151;52.246;4.820;2023-11-21T14:04:04;14.10;93.20
14142;DHT22;7151;52.246;4.820;2023-11-21T14:06:50;14.10;93.20
14142;DHT22;7151;52.246;4.820;2023-11-21T14:09:20;14.10;93.20
14142;DHT22;7151;52.246;4.820;2023-11-21T14:11:54;14.10;93.20
14142;DHT22;7151;52.246;4.820;2023-11-21T14:14:24;14.10;93.10
14142;DHT22;7151;52.246;4.820;2023-11-21T14:16:51;14.00;93.00
14142;DHT22;7151;52.246;4.820;2023-11-21T14:19:17;14.00;93.00
14142;DHT22;7151;52.246;4.820;2023-11-21T14:21:44;14.00;93.10
14142;DHT22;7151;52.246;4.820;2023-11-21T14:24:13;14.00;93.10
14142;DHT22;7151;52.246;4.820;2023-11-21T14:26:43;14.00;93.10
14142;DHT22;7151;52.246;4.820;2023-11-21T14:29:09;14.00;93.10
14142;DHT22;7151;52.246;4.820;2023-11-21T14:31:36;14.00;93.00
14142;DHT22;7151;52.246;4.820;2023-11-21T14:34:02;14.00;93.20
14142;DHT22;7151;52.246;4.820;2023-11-21T14:36:29;14.10;93.60
14142;DHT22;7151;52.246;4.820;2023-11-21T14:38:54;14.20;93.90
14142;DHT22;7151;52.246;4.820;2023-11-21T14:41:20;14.30;94.10
14142;DHT22;7151;52.246;4.820;2023-11-21T14:43:46;14.50;94.30
14142;DHT22;7151;52.246;4.820;2023-11-21T14:46:15;14.60;94.40
14142;DHT22;7151;52.246;4.820;2023-11-21T14:48:42;14.80;94.50
14142;DHT22;7151;52.246;4.820;2023-11-21T14:51:09;14.90;94.40
14142;DHT22;7151;52.246;4.820;2023-11-21T14:53:59;15.10;94.30
14142;DHT22;7151;52.246;4.820;2023-11-21T14:56:35;15.20;93.90
14142;DHT22;7151;52.246;4.820;2023-11-21T14:59:03;15.30;93.30
14142;DHT22;7151;52.246;4.820;2023-11-21T15:01:38;15.20;92.90
14142;DHT22;7151;52.246;4.820;2023-11-21T15:04:21;15.20;92.60
14142;DHT22;7151;52.246;4.820;2023-11-21T15:07:04;15.10;92.30
14142;DHT22;7151;52.246;4.820;2023-11-21T15:09:30;15.00;92.20
14142;DHT22;7151;52.246;4.820;2023-11-21T15:11:59;14.90;92.10
14142;DHT22;7151;52.246;4.820;2023-11-21T15:14:51;14.80;92.10
14142;DHT22;7151;52.246;4.820;2023-11-21T15:17:22;14.70;92.00
14142;DHT22;7151;52.246;4.820;2023-11-21T15:19:50;14.60;92.00
14142;DHT22;7151;52.246;4.820;2023-11-21T15:22:16;14.60;92.00
14142;DHT22;7151;52.246;4.820;2023-11-21T15:24:42;14.50;92.00
14142;DHT22;7151;52.246;4.820;2023-11-21T15:27:10;14.40;91.90
14142;DHT22;7151;52.246;4.820;2023-11-21T15:29:38;14.40;92.00
14142;DHT22;7151;52.246;4.820;2023-11-21T15:32:08;14.30;91.90
14142;DHT22;7151;52.246;4.820;2023-11-21T15:34:35;14.30;91.90
14142;DHT22;7151;52.246;4.820;2023-11-21T15:37:01;14.30;92.20
14142;DHT22;7151;52.246;4.820;2023-11-21T15:39:28;14.20;92.10
14142;DHT22;7151;52.246;4.820;2023-11-21T15:41:59;14.20;91.80
14142;DHT22;7151;52.246;4.820;2023-11-21T15:44:25;14.10;91.80
14142;DHT22;7151;52.246;4.820;2023-11-21T15:46:53;14.10;91.80
14142;DHT22;7151;52.246;4.820;2023-11-21T15:49:18;14.00;91.80
14142;DHT22;7151;52.246;4.820;2023-11-21T15:51:48;14.00;91.80
14142;DHT22;7151;52.246;4.820;2023-11-21T15:54:21;14.00;91.80
14142;DHT22;7151;52.246;4.820;2023-11-21T15:56:47;14.00;92.10
14142;DHT22;7151;52.246;4.820;2023-11-21T15:59:13;13.90;91.80
14142;DHT22;7151;52.246;4.820;2023-11-21T16:01:39;13.90;91.80